createdAt,value
2019-03-28T00:01:56.507Z,99.90
2019-03-28T00:04:25.830Z,99.90
2019-03-28T00:06:55.158Z,99.90
2019-03-28T00:09:24.491Z,99.90
2019-03-28T00:11:53.922Z,99.90
2019-03-28T00:14:23.228Z,99.90
2019-03-28T00:16:52.672Z,99.90
2019-03-28T00:19:21.977Z,99.90
2019-03-28T00:21:58.316Z,99.90
2019-03-28T00:24:36.630Z,99.90
2019-03-28T00:27:05.961Z,99.90
2019-03-28T00:29:35.684Z,99.90
2019-03-28T00:32:06.343Z,99.90
2019-03-28T00:34:35.681Z,99.90
2019-03-28T00:37:07.572Z,99.90
2019-03-28T00:39:36.371Z,99.90
2019-03-28T00:42:06.193Z,99.90
2019-03-28T00:44:36.334Z,99.90
2019-03-28T00:47:06.650Z,99.90
2019-03-28T00:49:35.988Z,99.90
2019-03-28T00:52:05.295Z,99.90
2019-03-28T00:54:36.344Z,99.90
2019-03-28T00:57:05.942Z,99.90
2019-03-28T00:59:35.359Z,99.90
2019-03-28T01:02:04.808Z,99.90
2019-03-28T01:04:34.007Z,99.90
2019-03-28T01:07:03.857Z,99.90
2019-03-28T01:09:33.083Z,99.90
2019-03-28T01:12:02.666Z,99.90
2019-03-28T01:14:32.852Z,99.90
2019-03-28T01:17:02.588Z,99.90
2019-03-28T01:19:32.124Z,99.90
2019-03-28T01:22:01.727Z,99.90
2019-03-28T01:24:32.766Z,99.90
2019-03-28T01:27:01.978Z,99.90
2019-03-28T01:29:32.267Z,99.90
2019-03-28T01:32:02.359Z,99.90
2019-03-28T01:34:31.787Z,99.90
2019-03-28T01:37:01.040Z,99.90
2019-03-28T01:39:30.354Z,99.90
2019-03-28T01:41:59.682Z,99.90
2019-03-28T01:44:28.987Z,99.90
2019-03-28T01:46:58.329Z,99.90
2019-03-28T01:49:27.651Z,99.90
2019-03-28T01:52:04.182Z,99.90
2019-03-28T01:54:32.955Z,99.90
2019-03-28T01:57:10.841Z,99.90
2019-03-28T01:59:33.569Z,99.90
2019-03-28T02:02:04.196Z,99.90
2019-03-28T02:04:33.451Z,99.90
2019-03-28T02:07:03.494Z,99.90
2019-03-28T02:09:34.542Z,99.90
2019-03-28T02:12:04.117Z,99.90
2019-03-28T02:14:33.315Z,99.90
2019-03-28T02:17:04.324Z,99.90
2019-03-28T02:19:33.596Z,99.90
2019-03-28T02:22:03.586Z,99.90
2019-03-28T02:24:32.802Z,99.90
2019-03-28T02:27:02.023Z,99.90
2019-03-28T02:29:31.363Z,99.90
2019-03-28T02:32:02.384Z,99.90
2019-03-28T02:34:33.414Z,99.90
2019-03-28T02:37:02.747Z,99.90
2019-03-28T02:39:32.124Z,99.90
2019-03-28T02:42:01.685Z,99.90
2019-03-28T02:44:31.178Z,99.90
2019-03-28T02:47:00.481Z,99.90
2019-03-28T02:49:29.832Z,99.90
2019-03-28T02:52:02.757Z,99.90
2019-03-28T02:54:33.826Z,99.90
2019-03-28T02:57:03.078Z,99.90
2019-03-28T02:59:32.499Z,99.90
2019-03-28T03:02:02.156Z,99.90
2019-03-28T03:04:31.470Z,99.90
2019-03-28T03:07:00.731Z,99.90
2019-03-28T03:09:30.107Z,99.90
2019-03-28T03:11:59.326Z,99.90
2019-03-28T03:14:28.637Z,99.90
2019-03-28T03:16:57.869Z,99.90
2019-03-28T03:19:27.211Z,99.90
2019-03-28T03:22:04.331Z,99.90
2019-03-28T03:24:33.560Z,99.90
2019-03-28T03:27:02.757Z,99.90
2019-03-28T03:29:32.149Z,99.90
2019-03-28T03:32:03.200Z,99.90
2019-03-28T03:34:33.179Z,99.90
2019-03-28T03:37:03.811Z,99.90
2019-03-28T03:39:33.546Z,99.90
2019-03-28T03:42:03.148Z,99.90
2019-03-28T03:44:32.792Z,99.90
2019-03-28T03:47:02.023Z,99.90
2019-03-28T03:49:31.449Z,99.90
2019-03-28T03:52:04.513Z,99.90
2019-03-28T03:54:35.554Z,99.90
2019-03-28T03:57:04.929Z,99.90
2019-03-28T03:59:34.344Z,99.90
2019-03-28T04:02:03.704Z,99.90
2019-03-28T04:04:34.705Z,99.90
2019-03-28T04:07:04.641Z,99.90
2019-03-28T04:09:34.115Z,99.90
2019-03-28T04:12:03.468Z,99.90
2019-03-28T04:14:32.700Z,99.90
2019-03-28T04:17:02.007Z,99.90
2019-03-28T04:19:31.941Z,99.90
2019-03-28T04:22:05.759Z,99.90
2019-03-28T04:24:35.107Z,99.90
2019-03-28T04:27:04.422Z,99.90
2019-03-28T04:29:33.776Z,99.90
2019-03-28T04:32:04.795Z,99.90
2019-03-28T04:34:34.129Z,99.90
2019-03-28T04:37:03.338Z,99.90
2019-03-28T04:39:33.035Z,99.90
2019-03-28T04:42:02.268Z,99.90
2019-03-28T04:44:31.810Z,99.90
2019-03-28T04:47:01.041Z,99.90
2019-03-28T04:49:30.309Z,99.90
2019-03-28T04:52:06.995Z,99.90
2019-03-28T04:54:36.225Z,99.90
2019-03-28T04:57:07.267Z,99.90
2019-03-28T04:59:36.540Z,99.90
2019-03-28T05:02:05.895Z,99.90
2019-03-28T05:04:35.205Z,99.90
2019-03-28T05:07:06.244Z,99.90
2019-03-28T05:09:35.633Z,99.90
2019-03-28T05:12:05.022Z,99.90
2019-03-28T05:14:34.265Z,99.90
2019-03-28T05:17:03.642Z,99.90
2019-03-28T05:19:33.071Z,99.90
2019-03-28T05:22:07.959Z,99.90
2019-03-28T05:24:37.194Z,99.90
2019-03-28T05:27:07.883Z,99.90
2019-03-28T05:29:37.388Z,99.90
2019-03-28T05:32:08.317Z,99.90
2019-03-28T05:34:37.819Z,99.90
2019-03-28T05:37:07.409Z,99.90
2019-03-28T05:39:36.914Z,99.90
2019-03-28T05:42:06.269Z,99.90
2019-03-28T05:44:37.013Z,99.90
2019-03-28T05:47:06.545Z,99.90
2019-03-28T05:49:35.957Z,99.90
2019-03-28T05:52:11.736Z,99.90
2019-03-28T05:54:40.758Z,99.90
2019-03-28T05:57:10.719Z,99.90
2019-03-28T05:59:40.077Z,99.90
2019-03-28T06:02:09.823Z,99.90
2019-03-28T06:04:39.050Z,99.90
2019-03-28T06:07:08.873Z,99.90
2019-03-28T06:09:40.262Z,99.90
2019-03-28T06:12:09.527Z,99.90
2019-03-28T06:14:40.808Z,99.90
2019-03-28T06:17:10.516Z,99.90
2019-03-28T06:19:39.954Z,99.90
2019-03-28T06:22:10.807Z,99.90
2019-03-28T06:24:40.444Z,99.90
2019-03-28T06:27:09.647Z,99.90
2019-03-28T06:29:38.986Z,99.90
2019-03-28T06:32:08.291Z,99.90
2019-03-28T06:34:37.730Z,99.90
2019-03-28T06:37:06.969Z,99.90
2019-03-28T06:39:36.719Z,99.90
2019-03-28T06:42:06.133Z,99.90
2019-03-28T06:44:35.361Z,99.90
2019-03-28T06:47:04.776Z,99.90
2019-03-28T06:49:35.093Z,99.90
2019-03-28T06:52:11.148Z,99.90
2019-03-28T06:54:41.051Z,99.90
2019-03-28T06:57:10.357Z,99.90
2019-03-28T06:59:39.683Z,99.90
2019-03-28T07:02:09.011Z,99.90
2019-03-28T07:04:38.227Z,99.90
2019-03-28T07:07:07.531Z,99.90
2019-03-28T07:09:36.909Z,99.90
2019-03-28T07:12:06.230Z,99.90
2019-03-28T07:14:36.768Z,99.90
2019-03-28T07:17:05.982Z,99.90
2019-03-28T07:19:37.088Z,99.90
2019-03-28T07:22:12.552Z,99.90
2019-03-28T07:24:41.873Z,99.90
2019-03-28T07:27:11.088Z,99.90
2019-03-28T07:29:50.133Z,99.90
2019-03-28T07:32:12.080Z,99.90
2019-03-28T07:34:41.400Z,99.90
2019-03-28T07:37:11.267Z,99.90
2019-03-28T07:39:40.646Z,99.90
2019-03-28T07:42:09.964Z,99.90
2019-03-28T07:44:39.191Z,99.90
2019-03-28T07:47:08.410Z,99.90
2019-03-28T07:49:37.869Z,99.90
2019-03-28T07:52:12.314Z,99.90
2019-03-28T07:54:41.624Z,99.90
2019-03-28T07:57:10.846Z,99.90
2019-03-28T07:59:40.399Z,99.90
2019-03-28T08:02:11.406Z,99.90
2019-03-28T08:04:40.931Z,99.90
2019-03-28T08:07:10.146Z,99.90
2019-03-28T08:09:39.527Z,99.90
2019-03-28T08:12:22.015Z,99.90
2019-03-28T08:14:39.987Z,99.90
2019-03-28T08:17:09.328Z,99.90
2019-03-28T08:19:41.509Z,99.90
2019-03-28T08:22:13.799Z,99.90
2019-03-28T08:24:43.108Z,99.90
2019-03-28T08:27:12.644Z,99.90
2019-03-28T08:29:43.766Z,99.90
2019-03-28T08:32:17.974Z,99.90
2019-03-28T08:34:47.407Z,99.90
2019-03-28T08:37:16.841Z,99.90
2019-03-28T08:39:46.497Z,99.90
2019-03-28T08:42:15.832Z,99.90
2019-03-28T08:44:45.059Z,99.90
2019-03-28T08:47:14.966Z,99.90
2019-03-28T08:49:44.328Z,99.90
2019-03-28T08:52:15.510Z,99.90
2019-03-28T08:54:44.931Z,99.90
2019-03-28T08:57:14.244Z,99.90
2019-03-28T09:02:33.363Z,99.90
2019-03-28T09:05:02.701Z,99.90
2019-03-28T09:07:32.113Z,99.90
2019-03-28T09:10:01.353Z,99.90
2019-03-28T09:12:30.647Z,99.90
2019-03-28T09:15:00.054Z,99.90
2019-03-28T09:17:29.607Z,99.90
2019-03-28T09:19:59.159Z,99.90
2019-03-28T09:22:28.692Z,99.90
2019-03-28T09:24:59.693Z,99.90
2019-03-28T09:27:29.530Z,99.90
2019-03-28T09:29:58.949Z,99.90
2019-03-28T09:32:28.257Z,99.90
2019-03-28T09:34:59.389Z,99.90
2019-03-28T09:37:28.793Z,99.90
2019-03-28T09:39:58.147Z,99.90
2019-03-28T09:42:27.443Z,99.90
2019-03-28T09:44:56.676Z,99.90
2019-03-28T09:47:26.061Z,99.90
2019-03-28T09:49:57.155Z,99.90
2019-03-28T09:52:26.455Z,99.90
2019-03-28T09:54:55.674Z,99.90
2019-03-28T09:57:24.920Z,99.90
2019-03-28T09:59:54.234Z,99.90
2019-03-28T10:02:23.829Z,99.90
2019-03-28T10:04:54.851Z,99.90
2019-03-28T10:07:24.158Z,99.90
2019-03-28T10:09:53.565Z,99.90
2019-03-28T10:12:23.266Z,99.90
2019-03-28T10:14:54.271Z,99.40
2019-03-28T10:17:23.605Z,99.30
2019-03-28T10:19:54.655Z,99.50
2019-03-28T10:22:23.966Z,99.60
2019-03-28T10:24:54.989Z,99.40
2019-03-28T10:27:24.312Z,99.60
2019-03-28T10:29:55.476Z,99.60
2019-03-28T10:32:24.804Z,99.50
2019-03-28T10:34:54.101Z,99.20
2019-03-28T10:37:23.374Z,99.10
2019-03-28T10:39:53.003Z,99.30
2019-03-28T10:42:22.752Z,99.30
2019-03-28T10:44:52.772Z,99.00
2019-03-28T10:47:22.586Z,99.00
2019-03-28T10:49:53.893Z,98.80
2019-03-28T10:52:23.148Z,99.10
2019-03-28T10:54:52.491Z,99.30
2019-03-28T10:57:29.710Z,98.80
2019-03-28T10:59:53.231Z,99.10
2019-03-28T11:02:24.044Z,98.80
2019-03-28T11:04:53.372Z,98.30
2019-03-28T11:07:22.681Z,98.10
2019-03-28T11:09:52.000Z,97.90
2019-03-28T11:12:21.310Z,98.00
2019-03-28T11:14:52.332Z,97.80
2019-03-28T11:17:21.874Z,98.10
2019-03-28T11:19:51.379Z,97.80
2019-03-28T11:22:21.469Z,97.90
2019-03-28T11:24:52.779Z,97.50
2019-03-28T11:27:22.101Z,97.10
2019-03-28T11:29:52.570Z,97.20
2019-03-28T11:32:21.797Z,97.20
2019-03-28T11:34:51.106Z,97.30
2019-03-28T11:39:51.856Z,96.40
2019-03-28T11:42:21.209Z,96.80
2019-03-28T11:42:35.528Z,96.90
2019-03-28T11:44:51.102Z,96.60
2019-03-28T11:47:22.512Z,96.10
2019-03-28T11:49:52.644Z,96.20
2019-03-28T11:52:23.164Z,95.70
2019-03-28T11:54:52.375Z,95.70
2019-03-28T11:57:21.674Z,95.90
2019-03-28T11:59:50.994Z,95.40
2019-03-28T12:02:20.780Z,95.30
2019-03-28T12:04:50.115Z,95.80
2019-03-28T12:07:19.638Z,95.20
2019-03-28T12:09:48.942Z,94.50
2019-03-28T12:12:18.271Z,95.00
2019-03-28T12:14:47.472Z,95.00
2019-03-28T12:17:18.506Z,95.20
2019-03-28T12:19:48.611Z,94.70
2019-03-28T12:22:22.148Z,94.80
2019-03-28T12:24:51.439Z,94.90
2019-03-28T12:27:20.858Z,95.80
2019-03-28T12:29:50.078Z,95.20
2019-03-28T12:32:19.506Z,96.00
2019-03-28T12:34:49.136Z,95.10
2019-03-28T12:37:19.351Z,94.00
2019-03-28T12:39:48.596Z,94.20
2019-03-28T12:42:17.898Z,95.40
2019-03-28T12:44:56.864Z,94.60
2019-03-28T12:47:18.377Z,94.20
2019-03-28T12:49:47.742Z,94.00
2019-03-28T12:52:23.769Z,93.40
2019-03-28T12:54:53.299Z,93.20
2019-03-28T12:57:23.516Z,92.40
2019-03-28T12:59:53.749Z,93.70
2019-03-28T13:02:30.146Z,92.40
2019-03-28T13:04:54.849Z,92.50
2019-03-28T13:07:24.188Z,91.80
2019-03-28T13:09:53.452Z,91.10
2019-03-28T13:12:22.786Z,91.60
2019-03-28T13:14:52.075Z,90.70
2019-03-28T13:17:21.431Z,92.50
2019-03-28T13:19:50.651Z,89.90
2019-03-28T13:22:24.217Z,88.00
2019-03-28T13:24:53.719Z,89.30
2019-03-28T13:27:22.971Z,89.80
2019-03-28T13:29:55.017Z,88.90
2019-03-28T13:32:24.429Z,90.10
2019-03-28T13:34:56.331Z,90.30
2019-03-28T13:37:27.361Z,84.30
2019-03-28T13:39:56.840Z,84.10
2019-03-28T13:42:27.180Z,82.70
2019-03-28T13:44:56.498Z,82.60
2019-03-28T13:47:26.205Z,82.00
2019-03-28T13:49:55.484Z,83.60
2019-03-28T13:52:25.953Z,81.10
2019-03-28T13:54:55.158Z,81.00
2019-03-28T13:57:24.375Z,80.20
2019-03-28T13:59:53.734Z,78.00
2019-03-28T14:02:22.946Z,78.50
2019-03-28T14:04:52.747Z,79.10
2019-03-28T14:07:22.863Z,78.90
2019-03-28T14:09:52.369Z,81.10
2019-03-28T14:12:23.323Z,83.60
2019-03-28T14:14:52.731Z,80.90
2019-03-28T14:17:23.625Z,78.90
2019-03-28T14:19:53.007Z,77.20
2019-03-28T14:22:27.047Z,78.70
2019-03-28T14:24:56.402Z,78.80
2019-03-28T14:27:25.783Z,79.50
2019-03-28T14:29:55.102Z,77.70
2019-03-28T14:32:24.305Z,76.80
2019-03-28T14:34:54.238Z,76.30
2019-03-28T14:37:23.958Z,77.00
2019-03-28T14:39:53.494Z,77.50
2019-03-28T14:42:22.954Z,76.40
2019-03-28T14:44:52.265Z,77.00
2019-03-28T14:47:21.568Z,77.60
2019-03-28T14:49:51.199Z,79.50
2019-03-28T14:52:26.366Z,78.10
2019-03-28T14:54:56.342Z,76.80
2019-03-28T14:57:27.439Z,78.10
2019-03-28T14:59:59.687Z,77.70
2019-03-28T15:02:29.151Z,77.00
2019-03-28T15:04:58.586Z,77.30
2019-03-28T15:07:27.821Z,78.20
2019-03-28T15:09:57.194Z,78.20
2019-03-28T15:12:26.086Z,78.50
2019-03-28T15:14:56.522Z,77.30
2019-03-28T15:17:26.764Z,78.00
2019-03-28T15:19:56.370Z,78.50
2019-03-28T15:22:28.263Z,77.60
2019-03-28T15:24:58.005Z,78.00
2019-03-28T15:27:28.945Z,76.60
2019-03-28T15:29:58.493Z,79.80
2019-03-28T15:32:27.804Z,78.10
2019-03-28T15:34:57.328Z,77.30
2019-03-28T15:37:33.406Z,78.30
2019-03-28T15:40:03.410Z,77.20
2019-03-28T15:42:33.094Z,77.70
2019-03-28T15:45:02.311Z,79.50
2019-03-28T15:47:31.845Z,78.50
2019-03-28T15:50:03.147Z,80.70
2019-03-28T15:52:32.581Z,81.30
2019-03-28T15:55:02.179Z,80.70
2019-03-28T15:57:33.237Z,83.60
2019-03-28T16:00:02.596Z,86.90
2019-03-28T16:02:33.645Z,83.40
2019-03-28T16:05:03.960Z,81.20
2019-03-28T16:07:33.470Z,79.60
2019-03-28T16:10:03.301Z,82.50
2019-03-28T16:12:32.632Z,83.30
2019-03-28T16:15:01.862Z,84.40
2019-03-28T16:17:34.505Z,86.00
2019-03-28T16:20:07.381Z,85.10
2019-03-28T16:22:37.744Z,84.10
2019-03-28T16:25:08.799Z,82.00
2019-03-28T16:27:39.824Z,82.80
2019-03-28T16:30:11.091Z,84.10
2019-03-28T16:32:40.607Z,86.20
2019-03-28T16:35:09.846Z,82.20
2019-03-28T16:37:39.058Z,82.80
2019-03-28T16:40:08.788Z,83.20
2019-03-28T16:42:38.094Z,81.70
2019-03-28T16:45:08.378Z,81.90
2019-03-28T16:47:37.627Z,85.20
2019-03-28T16:50:07.347Z,85.90
2019-03-28T16:52:36.637Z,88.90
2019-03-28T16:55:07.349Z,89.20
2019-03-28T16:57:39.272Z,90.30
2019-03-28T17:00:11.691Z,90.60
2019-03-28T17:02:40.991Z,90.90
2019-03-28T17:05:10.405Z,91.20
2019-03-28T17:07:39.835Z,91.20
2019-03-28T17:10:14.623Z,89.00
2019-03-28T17:12:44.344Z,88.70
2019-03-28T17:15:13.799Z,89.70
2019-03-28T17:17:43.029Z,87.90
2019-03-28T17:20:14.968Z,87.90
2019-03-28T17:22:44.532Z,86.00
2019-03-28T17:25:15.543Z,85.90
2019-03-28T17:27:46.573Z,86.70
2019-03-28T17:30:16.045Z,87.80
2019-03-28T17:32:45.266Z,89.50
2019-03-28T17:35:14.788Z,90.00
2019-03-28T17:37:44.290Z,90.20
2019-03-28T17:40:14.149Z,90.90
2019-03-28T17:42:47.700Z,91.30
2019-03-28T17:45:22.043Z,91.70
2019-03-28T17:47:56.453Z,91.80
2019-03-28T17:50:25.919Z,91.80
2019-03-28T17:52:55.463Z,92.20
2019-03-28T17:55:25.033Z,92.90
2019-03-28T17:57:54.497Z,93.10
2019-03-28T18:00:24.071Z,93.30
2019-03-28T18:02:53.400Z,93.40
2019-03-28T18:05:22.772Z,93.30
2019-03-28T18:07:52.013Z,93.70
2019-03-28T18:10:23.603Z,93.70
2019-03-28T18:12:52.957Z,94.20
2019-03-28T18:15:22.300Z,94.10
2019-03-28T18:17:51.772Z,94.20
2019-03-28T18:20:21.945Z,94.40
2019-03-28T18:22:51.644Z,94.70
2019-03-28T18:25:21.040Z,94.20
2019-03-28T18:27:50.789Z,94.20
2019-03-28T18:30:20.592Z,94.50
2019-03-28T18:32:50.272Z,94.80
2019-03-28T18:35:19.775Z,94.90
2019-03-28T18:37:49.310Z,95.20
2019-03-28T18:40:19.277Z,95.00
2019-03-28T18:42:49.065Z,95.10
2019-03-28T18:45:18.943Z,94.90
2019-03-28T18:47:48.455Z,95.30
2019-03-28T18:50:19.576Z,95.40
2019-03-28T18:52:49.035Z,96.10
2019-03-28T18:55:20.693Z,96.10
2019-03-28T18:57:50.394Z,95.60
2019-03-28T19:00:22.712Z,95.80
2019-03-28T19:02:52.091Z,96.00
2019-03-28T19:05:22.819Z,96.10
2019-03-28T19:07:52.481Z,96.30
2019-03-28T19:10:21.899Z,96.50
2019-03-28T19:12:52.624Z,96.60
2019-03-28T19:15:24.005Z,96.50
2019-03-28T19:18:02.690Z,96.60
2019-03-28T19:20:33.300Z,96.60
2019-03-28T19:23:06.892Z,96.80
2019-03-28T19:25:35.094Z,96.70
2019-03-28T19:28:07.457Z,96.70
2019-03-28T19:30:38.669Z,97.00
2019-03-28T19:33:08.280Z,97.00
2019-03-28T19:35:40.238Z,97.00
2019-03-28T19:38:09.627Z,97.30
2019-03-28T19:40:39.391Z,97.30
2019-03-28T19:43:19.873Z,98.00
2019-03-28T19:45:40.235Z,98.10
2019-03-28T19:48:09.780Z,97.80
2019-03-28T19:50:39.253Z,97.70
2019-03-28T19:53:11.583Z,98.30
2019-03-28T19:55:40.206Z,98.80
2019-03-28T19:58:13.177Z,98.60
2019-03-28T20:00:41.591Z,98.80
2019-03-28T20:03:10.909Z,99.00
2019-03-28T20:05:47.352Z,99.10
2019-03-28T20:08:16.408Z,99.20
2019-03-28T20:10:48.112Z,99.40
2019-03-28T20:13:19.478Z,99.30
2019-03-28T20:15:49.262Z,99.40
2019-03-28T20:18:19.067Z,99.90
2019-03-28T20:20:48.735Z,99.90
2019-03-28T20:23:22.667Z,99.90
2019-03-28T20:25:52.283Z,99.90
2019-03-28T20:28:21.505Z,99.90
2019-03-28T20:30:51.350Z,99.90
2019-03-28T20:33:20.706Z,99.90
2019-03-28T20:36:02.246Z,99.90
2019-03-28T20:38:21.810Z,99.90
2019-03-28T20:40:53.086Z,99.90
2019-03-28T20:43:24.407Z,99.90
2019-03-28T20:45:53.756Z,99.90
2019-03-28T20:48:23.245Z,99.90
2019-03-28T20:50:54.266Z,99.90
2019-03-28T20:53:23.964Z,99.90
2019-03-28T20:55:53.340Z,99.90
2019-03-28T20:58:22.893Z,99.90
2019-03-28T21:00:52.663Z,99.90
2019-03-28T21:03:22.121Z,99.90
2019-03-28T21:05:52.262Z,99.90
2019-03-28T21:08:22.561Z,99.90
2019-03-28T21:10:52.079Z,99.90
2019-03-28T21:13:21.724Z,99.90
2019-03-28T21:15:52.248Z,99.90
2019-03-28T21:18:22.016Z,99.90
2019-03-28T21:20:51.428Z,99.90
2019-03-28T21:23:20.659Z,99.90
2019-03-28T21:25:52.015Z,99.90
2019-03-28T21:28:25.046Z,99.90
2019-03-28T21:30:55.102Z,99.90
2019-03-28T21:33:25.108Z,99.90
2019-03-28T21:35:54.711Z,99.90
2019-03-28T21:38:23.953Z,99.90
2019-03-28T21:40:53.805Z,99.90
2019-03-28T21:43:23.213Z,99.90
2019-03-28T21:45:53.440Z,99.90
2019-03-28T21:48:22.777Z,99.90
2019-03-28T21:50:52.246Z,99.90
2019-03-28T21:53:21.468Z,99.90
2019-03-28T21:55:55.573Z,99.90
2019-03-28T21:58:22.021Z,99.90
2019-03-28T22:00:51.418Z,99.90
2019-03-28T22:03:20.837Z,99.90
2019-03-28T22:05:50.082Z,99.90
2019-03-28T22:08:19.430Z,99.90
2019-03-28T22:10:48.800Z,99.90
2019-03-28T22:13:18.128Z,99.90
2019-03-28T22:15:47.469Z,99.90
2019-03-28T22:18:16.799Z,99.90
2019-03-28T22:20:46.204Z,99.90
2019-03-28T22:23:15.423Z,99.90
2019-03-28T22:25:46.037Z,99.90
2019-03-28T22:28:15.261Z,99.90
2019-03-28T22:30:44.510Z,99.90
2019-03-28T22:33:15.782Z,99.90
2019-03-28T22:35:45.148Z,99.90
2019-03-28T22:38:14.476Z,99.90
2019-03-28T22:40:44.051Z,99.90
2019-03-28T22:43:13.308Z,99.90
2019-03-28T22:45:43.819Z,99.90
2019-03-28T22:48:13.357Z,99.90
2019-03-28T22:50:42.635Z,99.90
2019-03-28T22:53:12.003Z,99.90
2019-03-28T22:55:41.658Z,99.90
2019-03-28T22:58:12.152Z,99.90
2019-03-28T23:00:45.413Z,99.90
2019-03-28T23:03:18.332Z,99.90
2019-03-28T23:05:47.752Z,99.90
2019-03-28T23:08:17.098Z,99.90
2019-03-28T23:10:46.497Z,99.90
2019-03-28T23:13:16.890Z,99.90
2019-03-28T23:15:46.118Z,99.90
2019-03-28T23:18:15.449Z,99.90
2019-03-28T23:20:44.986Z,99.90
2019-03-28T23:23:14.218Z,99.90
2019-03-28T23:25:45.221Z,99.90
2019-03-28T23:28:14.564Z,99.90
2019-03-28T23:30:43.782Z,99.90
2019-03-28T23:33:13.110Z,99.90
2019-03-28T23:35:42.320Z,99.90
2019-03-28T23:38:11.538Z,99.90
2019-03-28T23:40:40.940Z,99.90
2019-03-28T23:43:10.248Z,99.90
2019-03-28T23:45:41.277Z,99.90
2019-03-28T23:48:10.614Z,99.90
2019-03-28T23:50:39.994Z,99.90
2019-03-28T23:53:09.232Z,99.90
2019-03-28T23:55:38.526Z,99.90
2019-03-28T23:58:07.759Z,99.90
